sensor_id;sensor_type;location;lat;lon;timestamp;P1;durP1;ratioP1;P2;durP2;ratioP2
16660;SDS011;8444;52.012;5.048;2022-09-03T00:00:57;3.45;;;1.38;;
16660;SDS011;8444;52.012;5.048;2022-09-03T00:06:04;2.50;;;1.48;;
16660;SDS011;8444;52.012;5.048;2022-09-03T00:08:54;1.77;;;1.20;;
16660;SDS011;8444;52.012;5.048;2022-09-03T00:11:21;2.40;;;1.50;;
16660;SDS011;8444;52.012;5.048;2022-09-03T00:16:14;1.43;;;1.33;;
16660;SDS011;8444;52.012;5.048;2022-09-03T00:21:40;2.08;;;1.48;;
16660;SDS011;8444;52.012;5.048;2022-09-03T00:24:09;2.75;;;1.30;;
16660;SDS011;8444;52.012;5.048;2022-09-03T00:26:35;2.40;;;1.20;;
16660;SDS011;8444;52.012;5.048;2022-09-03T00:29:04;2.28;;;1.77;;
16660;SDS011;8444;52.012;5.048;2022-09-03T00:31:32;2.00;;;1.20;;
16660;SDS011;8444;52.012;5.048;2022-09-03T00:34:12;2.67;;;1.90;;
16660;SDS011;8444;52.012;5.048;2022-09-03T00:36:40;2.95;;;1.45;;
16660;SDS011;8444;52.012;5.048;2022-09-03T00:39:10;5.47;;;2.15;;
16660;SDS011;8444;52.012;5.048;2022-09-03T00:41:36;1.73;;;1.50;;
16660;SDS011;8444;52.012;5.048;2022-09-03T00:44:12;2.45;;;1.25;;
16660;SDS011;8444;52.012;5.048;2022-09-03T00:51:58;2.42;;;1.98;;
16660;SDS011;8444;52.012;5.048;2022-09-03T01:02:32;1.95;;;1.42;;
16660;SDS011;8444;52.012;5.048;2022-09-03T01:07:33;4.15;;;1.67;;
16660;SDS011;8444;52.012;5.048;2022-09-03T01:12:56;2.47;;;1.60;;
16660;SDS011;8444;52.012;5.048;2022-09-03T01:20:41;2.42;;;1.60;;
16660;SDS011;8444;52.012;5.048;2022-09-03T01:23:23;1.83;;;1.58;;
16660;SDS011;8444;52.012;5.048;2022-09-03T01:26:02;2.35;;;1.33;;
16660;SDS011;8444;52.012;5.048;2022-09-03T01:28:38;2.60;;;1.60;;
16660;SDS011;8444;52.012;5.048;2022-09-03T01:33:48;2.15;;;1.83;;
16660;SDS011;8444;52.012;5.048;2022-09-03T01:39:02;1.50;;;1.23;;
16660;SDS011;8444;52.012;5.048;2022-09-03T01:41:33;3.10;;;1.23;;
16660;SDS011;8444;52.012;5.048;2022-09-03T01:47:02;3.10;;;1.52;;
16660;SDS011;8444;52.012;5.048;2022-09-03T01:49:37;1.88;;;1.48;;
16660;SDS011;8444;52.012;5.048;2022-09-03T01:52:11;6.10;;;1.80;;
16660;SDS011;8444;52.012;5.048;2022-09-03T01:54:43;1.17;;;1.02;;
16660;SDS011;8444;52.012;5.048;2022-09-03T02:02:10;1.97;;;1.37;;
16660;SDS011;8444;52.012;5.048;2022-09-03T02:07:45;1.88;;;1.67;;
16660;SDS011;8444;52.012;5.048;2022-09-03T02:10:14;2.08;;;1.60;;
16660;SDS011;8444;52.012;5.048;2022-09-03T02:12:40;2.35;;;1.50;;
16660;SDS011;8444;52.012;5.048;2022-09-03T02:15:12;7.07;;;1.75;;
16660;SDS011;8444;52.012;5.048;2022-09-03T02:17:38;1.60;;;1.45;;
16660;SDS011;8444;52.012;5.048;2022-09-03T02:20:06;1.60;;;1.50;;
16660;SDS011;8444;52.012;5.048;2022-09-03T02:22:32;4.88;;;1.98;;
16660;SDS011;8444;52.012;5.048;2022-09-03T02:24:58;2.00;;;1.55;;
16660;SDS011;8444;52.012;5.048;2022-09-03T02:27:24;7.53;;;1.58;;
16660;SDS011;8444;52.012;5.048;2022-09-03T02:29:49;1.58;;;1.48;;
16660;SDS011;8444;52.012;5.048;2022-09-03T02:32:14;1.50;;;1.40;;
16660;SDS011;8444;52.012;5.048;2022-09-03T02:34:41;1.58;;;1.48;;
16660;SDS011;8444;52.012;5.048;2022-09-03T02:37:17;2.33;;;1.60;;
16660;SDS011;8444;52.012;5.048;2022-09-03T02:39:42;2.10;;;1.50;;
16660;SDS011;8444;52.012;5.048;2022-09-03T02:42:08;3.63;;;1.85;;
16660;SDS011;8444;52.012;5.048;2022-09-03T02:44:34;1.50;;;1.38;;
16660;SDS011;8444;52.012;5.048;2022-09-03T02:47:04;3.28;;;1.90;;
16660;SDS011;8444;52.012;5.048;2022-09-03T02:49:30;2.08;;;1.73;;
16660;SDS011;8444;52.012;5.048;2022-09-03T02:52:02;3.15;;;1.70;;
16660;SDS011;8444;52.012;5.048;2022-09-03T02:54:33;1.95;;;1.63;;
16660;SDS011;8444;52.012;5.048;2022-09-03T02:57:03;1.90;;;1.60;;
16660;SDS011;8444;52.012;5.048;2022-09-03T02:59:28;2.95;;;1.50;;
16660;SDS011;8444;52.012;5.048;2022-09-03T03:01:54;2.93;;;2.47;;
16660;SDS011;8444;52.012;5.048;2022-09-03T03:04:19;1.77;;;1.30;;
16660;SDS011;8444;52.012;5.048;2022-09-03T03:06:45;3.15;;;2.17;;
16660;SDS011;8444;52.012;5.048;2022-09-03T03:09:10;2.88;;;1.50;;
16660;SDS011;8444;52.012;5.048;2022-09-03T03:11:35;2.63;;;1.70;;
16660;SDS011;8444;52.012;5.048;2022-09-03T03:14:01;2.88;;;1.70;;
16660;SDS011;8444;52.012;5.048;2022-09-03T03:16:26;1.75;;;1.65;;
16660;SDS011;8444;52.012;5.048;2022-09-03T03:18:51;2.80;;;1.38;;
16660;SDS011;8444;52.012;5.048;2022-09-03T03:21:17;3.90;;;1.40;;
16660;SDS011;8444;52.012;5.048;2022-09-03T03:23:42;3.75;;;2.50;;
16660;SDS011;8444;52.012;5.048;2022-09-03T03:26:12;1.65;;;1.55;;
16660;SDS011;8444;52.012;5.048;2022-09-03T03:28:38;1.70;;;1.40;;
16660;SDS011;8444;52.012;5.048;2022-09-03T03:33:32;2.03;;;1.60;;
16660;SDS011;8444;52.012;5.048;2022-09-03T03:35:57;2.83;;;1.73;;
16660;SDS011;8444;52.012;5.048;2022-09-03T03:38:22;2.05;;;1.50;;
16660;SDS011;8444;52.012;5.048;2022-09-03T03:40:47;1.50;;;1.40;;
16660;SDS011;8444;52.012;5.048;2022-09-03T03:43:12;2.55;;;1.60;;
16660;SDS011;8444;52.012;5.048;2022-09-03T03:45:38;4.00;;;1.52;;
16660;SDS011;8444;52.012;5.048;2022-09-03T03:48:03;1.73;;;1.55;;
16660;SDS011;8444;52.012;5.048;2022-09-03T03:50:28;1.65;;;1.52;;
16660;SDS011;8444;52.012;5.048;2022-09-03T03:52:53;3.75;;;1.60;;
16660;SDS011;8444;52.012;5.048;2022-09-03T03:55:18;2.85;;;1.50;;
16660;SDS011;8444;52.012;5.048;2022-09-03T03:57:44;2.55;;;1.60;;
16660;SDS011;8444;52.012;5.048;2022-09-03T04:00:09;2.40;;;1.55;;
16660;SDS011;8444;52.012;5.048;2022-09-03T04:02:34;1.83;;;1.65;;
16660;SDS011;8444;52.012;5.048;2022-09-03T04:04:59;1.70;;;1.60;;
16660;SDS011;8444;52.012;5.048;2022-09-03T04:07:24;2.25;;;1.70;;
16660;SDS011;8444;52.012;5.048;2022-09-03T04:09:50;2.15;;;1.65;;
16660;SDS011;8444;52.012;5.048;2022-09-03T04:12:15;2.22;;;1.92;;
16660;SDS011;8444;52.012;5.048;2022-09-03T04:14:41;4.43;;;1.52;;
16660;SDS011;8444;52.012;5.048;2022-09-03T04:17:06;2.38;;;1.85;;
16660;SDS011;8444;52.012;5.048;2022-09-03T04:19:32;1.60;;;1.42;;
16660;SDS011;8444;52.012;5.048;2022-09-03T04:21:57;1.83;;;1.63;;
16660;SDS011;8444;52.012;5.048;2022-09-03T04:24:22;2.28;;;1.85;;
16660;SDS011;8444;52.012;5.048;2022-09-03T04:26:47;3.42;;;1.55;;
16660;SDS011;8444;52.012;5.048;2022-09-03T04:29:14;2.65;;;1.75;;
16660;SDS011;8444;52.012;5.048;2022-09-03T04:31:39;2.60;;;1.48;;
16660;SDS011;8444;52.012;5.048;2022-09-03T04:34:24;2.25;;;1.77;;
16660;SDS011;8444;52.012;5.048;2022-09-03T04:36:50;3.22;;;1.63;;
16660;SDS011;8444;52.012;5.048;2022-09-03T04:39:15;3.63;;;1.75;;
16660;SDS011;8444;52.012;5.048;2022-09-03T04:41:40;2.35;;;1.80;;
16660;SDS011;8444;52.012;5.048;2022-09-03T04:44:05;1.73;;;1.50;;
16660;SDS011;8444;52.012;5.048;2022-09-03T04:46:30;3.58;;;1.63;;
16660;SDS011;8444;52.012;5.048;2022-09-03T04:48:57;2.53;;;1.80;;
16660;SDS011;8444;52.012;5.048;2022-09-03T04:51:23;2.55;;;2.05;;
16660;SDS011;8444;52.012;5.048;2022-09-03T04:53:53;3.53;;;1.80;;
16660;SDS011;8444;52.012;5.048;2022-09-03T04:56:19;2.03;;;1.83;;
16660;SDS011;8444;52.012;5.048;2022-09-03T04:58:45;2.25;;;1.70;;
16660;SDS011;8444;52.012;5.048;2022-09-03T05:01:15;2.17;;;1.70;;
16660;SDS011;8444;52.012;5.048;2022-09-03T05:03:40;1.58;;;1.48;;
16660;SDS011;8444;52.012;5.048;2022-09-03T05:06:05;2.15;;;1.90;;
16660;SDS011;8444;52.012;5.048;2022-09-03T05:08:32;4.38;;;1.30;;
16660;SDS011;8444;52.012;5.048;2022-09-03T05:11:00;6.03;;;1.90;;
16660;SDS011;8444;52.012;5.048;2022-09-03T05:13:26;2.30;;;1.70;;
16660;SDS011;8444;52.012;5.048;2022-09-03T05:15:52;3.80;;;1.65;;
16660;SDS011;8444;52.012;5.048;2022-09-03T05:18:17;1.85;;;1.65;;
16660;SDS011;8444;52.012;5.048;2022-09-03T05:20:43;2.80;;;1.73;;
16660;SDS011;8444;52.012;5.048;2022-09-03T05:23:08;2.17;;;1.50;;
16660;SDS011;8444;52.012;5.048;2022-09-03T05:25:33;2.65;;;2.15;;
16660;SDS011;8444;52.012;5.048;2022-09-03T05:27:59;2.08;;;1.88;;
16660;SDS011;8444;52.012;5.048;2022-09-03T05:30:24;2.65;;;1.73;;
16660;SDS011;8444;52.012;5.048;2022-09-03T05:32:50;3.00;;;2.08;;
16660;SDS011;8444;52.012;5.048;2022-09-03T05:35:16;1.55;;;1.27;;
16660;SDS011;8444;52.012;5.048;2022-09-03T05:37:41;1.50;;;1.40;;
16660;SDS011;8444;52.012;5.048;2022-09-03T05:40:06;3.28;;;1.73;;
16660;SDS011;8444;52.012;5.048;2022-09-03T05:42:34;5.13;;;1.73;;
16660;SDS011;8444;52.012;5.048;2022-09-03T05:45:01;2.00;;;1.50;;
16660;SDS011;8444;52.012;5.048;2022-09-03T05:47:27;4.00;;;1.50;;
16660;SDS011;8444;52.012;5.048;2022-09-03T05:49:52;2.22;;;1.90;;
16660;SDS011;8444;52.012;5.048;2022-09-03T05:52:17;4.43;;;1.67;;
16660;SDS011;8444;52.012;5.048;2022-09-03T05:54:45;5.22;;;1.90;;
16660;SDS011;8444;52.012;5.048;2022-09-03T05:57:11;2.22;;;1.90;;
16660;SDS011;8444;52.012;5.048;2022-09-03T05:59:37;1.70;;;1.60;;
16660;SDS011;8444;52.012;5.048;2022-09-03T06:02:02;2.05;;;1.52;;
16660;SDS011;8444;52.012;5.048;2022-09-03T06:04:27;2.65;;;1.40;;
16660;SDS011;8444;52.012;5.048;2022-09-03T06:06:52;1.60;;;1.50;;
16660;SDS011;8444;52.012;5.048;2022-09-03T06:09:18;3.42;;;1.90;;
16660;SDS011;8444;52.012;5.048;2022-09-03T06:11:44;3.70;;;1.40;;
16660;SDS011;8444;52.012;5.048;2022-09-03T06:14:10;2.33;;;1.92;;
16660;SDS011;8444;52.012;5.048;2022-09-03T06:16:37;2.35;;;1.50;;
16660;SDS011;8444;52.012;5.048;2022-09-03T06:19:02;2.40;;;1.85;;
16660;SDS011;8444;52.012;5.048;2022-09-03T06:21:30;2.20;;;1.55;;
16660;SDS011;8444;52.012;5.048;2022-09-03T06:23:56;2.50;;;1.63;;
16660;SDS011;8444;52.012;5.048;2022-09-03T06:26:21;2.38;;;1.50;;
16660;SDS011;8444;52.012;5.048;2022-09-03T06:28:47;2.25;;;1.75;;
16660;SDS011;8444;52.012;5.048;2022-09-03T06:31:16;2.10;;;1.70;;
16660;SDS011;8444;52.012;5.048;2022-09-03T06:33:42;2.78;;;1.55;;
16660;SDS011;8444;52.012;5.048;2022-09-03T06:36:12;2.13;;;1.52;;
16660;SDS011;8444;52.012;5.048;2022-09-03T06:38:37;2.22;;;1.55;;
16660;SDS011;8444;52.012;5.048;2022-09-03T06:41:04;3.90;;;1.30;;
16660;SDS011;8444;52.012;5.048;2022-09-03T06:43:30;1.67;;;1.50;;
16660;SDS011;8444;52.012;5.048;2022-09-03T06:45:56;3.50;;;1.60;;
16660;SDS011;8444;52.012;5.048;2022-09-03T06:48:22;2.35;;;1.20;;
16660;SDS011;8444;52.012;5.048;2022-09-03T06:50:57;1.70;;;1.60;;
16660;SDS011;8444;52.012;5.048;2022-09-03T06:53:24;1.80;;;1.08;;
16660;SDS011;8444;52.012;5.048;2022-09-03T06:55:53;1.23;;;1.13;;
16660;SDS011;8444;52.012;5.048;2022-09-03T06:58:18;2.10;;;1.67;;
16660;SDS011;8444;52.012;5.048;2022-09-03T07:00:43;2.42;;;1.50;;
16660;SDS011;8444;52.012;5.048;2022-09-03T07:03:09;1.40;;;1.30;;
16660;SDS011;8444;52.012;5.048;2022-09-03T07:05:34;1.40;;;1.10;;
16660;SDS011;8444;52.012;5.048;2022-09-03T07:07:59;1.70;;;1.33;;
16660;SDS011;8444;52.012;5.048;2022-09-03T07:10:24;1.92;;;1.40;;
16660;SDS011;8444;52.012;5.048;2022-09-03T07:12:52;2.67;;;1.88;;
16660;SDS011;8444;52.012;5.048;2022-09-03T07:15:17;2.55;;;1.08;;
16660;SDS011;8444;52.012;5.048;2022-09-03T07:17:43;1.70;;;1.08;;
16660;SDS011;8444;52.012;5.048;2022-09-03T07:20:09;5.90;;;1.40;;
16660;SDS011;8444;52.012;5.048;2022-09-03T07:22:34;2.55;;;1.20;;
16660;SDS011;8444;52.012;5.048;2022-09-03T07:24:59;2.13;;;1.67;;
16660;SDS011;8444;52.012;5.048;2022-09-03T07:27:25;2.22;;;1.50;;
16660;SDS011;8444;52.012;5.048;2022-09-03T07:29:51;1.43;;;1.13;;
16660;SDS011;8444;52.012;5.048;2022-09-03T07:32:16;1.20;;;1.10;;
16660;SDS011;8444;52.012;5.048;2022-09-03T07:34:41;2.33;;;1.20;;
16660;SDS011;8444;52.012;5.048;2022-09-03T07:37:06;1.73;;;1.10;;
16660;SDS011;8444;52.012;5.048;2022-09-03T07:39:31;1.75;;;1.30;;
16660;SDS011;8444;52.012;5.048;2022-09-03T07:41:57;2.10;;;1.55;;
16660;SDS011;8444;52.012;5.048;2022-09-03T07:44:24;1.45;;;1.30;;
16660;SDS011;8444;52.012;5.048;2022-09-03T07:46:49;1.30;;;1.20;;
16660;SDS011;8444;52.012;5.048;2022-09-03T07:49:14;2.58;;;1.50;;
16660;SDS011;8444;52.012;5.048;2022-09-03T07:51:40;2.05;;;1.15;;
16660;SDS011;8444;52.012;5.048;2022-09-03T07:54:06;1.27;;;0.98;;
16660;SDS011;8444;52.012;5.048;2022-09-03T07:56:32;1.77;;;1.40;;
16660;SDS011;8444;52.012;5.048;2022-09-03T07:58:59;5.45;;;1.40;;
16660;SDS011;8444;52.012;5.048;2022-09-03T08:01:25;2.10;;;1.20;;
16660;SDS011;8444;52.012;5.048;2022-09-03T08:03:51;1.98;;;1.40;;
16660;SDS011;8444;52.012;5.048;2022-09-03T08:06:17;1.67;;;1.20;;
16660;SDS011;8444;52.012;5.048;2022-09-03T08:08:43;2.33;;;1.10;;
16660;SDS011;8444;52.012;5.048;2022-09-03T08:11:12;1.33;;;1.17;;
16660;SDS011;8444;52.012;5.048;2022-09-03T08:13:45;2.67;;;1.15;;
16660;SDS011;8444;52.012;5.048;2022-09-03T08:16:12;2.78;;;1.17;;
16660;SDS011;8444;52.012;5.048;2022-09-03T08:18:38;1.67;;;1.20;;
16660;SDS011;8444;52.012;5.048;2022-09-03T08:21:04;2.40;;;1.10;;
16660;SDS011;8444;52.012;5.048;2022-09-03T08:23:31;1.30;;;1.02;;
16660;SDS011;8444;52.012;5.048;2022-09-03T08:25:57;1.50;;;1.30;;
16660;SDS011;8444;52.012;5.048;2022-09-03T08:28:22;3.80;;;1.38;;
16660;SDS011;8444;52.012;5.048;2022-09-03T08:30:48;1.63;;;1.03;;
16660;SDS011;8444;52.012;5.048;2022-09-03T08:33:13;1.83;;;1.20;;
16660;SDS011;8444;52.012;5.048;2022-09-03T08:35:39;1.75;;;1.17;;
16660;SDS011;8444;52.012;5.048;2022-09-03T08:38:04;1.57;;;1.20;;
16660;SDS011;8444;52.012;5.048;2022-09-03T08:40:31;3.75;;;1.20;;
16660;SDS011;8444;52.012;5.048;2022-09-03T08:43:14;2.47;;;1.13;;
16660;SDS011;8444;52.012;5.048;2022-09-03T08:45:42;1.80;;;1.23;;
16660;SDS011;8444;52.012;5.048;2022-09-03T08:48:15;2.57;;;1.00;;
16660;SDS011;8444;52.012;5.048;2022-09-03T08:50:47;3.10;;;1.20;;
16660;SDS011;8444;52.012;5.048;2022-09-03T08:55:49;1.47;;;1.10;;
16660;SDS011;8444;52.012;5.048;2022-09-03T08:58:24;2.78;;;1.10;;
16660;SDS011;8444;52.012;5.048;2022-09-03T09:00:54;2.97;;;1.02;;
16660;SDS011;8444;52.012;5.048;2022-09-03T09:03:32;1.23;;;0.88;;
16660;SDS011;8444;52.012;5.048;2022-09-03T09:13:41;2.63;;;1.13;;
16660;SDS011;8444;52.012;5.048;2022-09-03T09:16:12;1.70;;;0.98;;
16660;SDS011;8444;52.012;5.048;2022-09-03T09:21:28;1.83;;;1.63;;
16660;SDS011;8444;52.012;5.048;2022-09-03T09:23:56;1.85;;;1.23;;
16660;SDS011;8444;52.012;5.048;2022-09-03T09:26:24;2.78;;;1.48;;
16660;SDS011;8444;52.012;5.048;2022-09-03T09:28:54;2.00;;;1.20;;
16660;SDS011;8444;52.012;5.048;2022-09-03T09:31:22;1.63;;;1.52;;
16660;SDS011;8444;52.012;5.048;2022-09-03T09:33:47;2.03;;;1.10;;
16660;SDS011;8444;52.012;5.048;2022-09-03T09:36:13;2.38;;;1.05;;
16660;SDS011;8444;52.012;5.048;2022-09-03T09:38:43;2.10;;;1.38;;
16660;SDS011;8444;52.012;5.048;2022-09-03T09:41:13;3.63;;;1.23;;
16660;SDS011;8444;52.012;5.048;2022-09-03T09:43:39;2.78;;;1.55;;
16660;SDS011;8444;52.012;5.048;2022-09-03T09:46:10;3.25;;;1.77;;
16660;SDS011;8444;52.012;5.048;2022-09-03T09:48:37;2.85;;;1.10;;
16660;SDS011;8444;52.012;5.048;2022-09-03T09:51:09;1.77;;;0.98;;
16660;SDS011;8444;52.012;5.048;2022-09-03T09:53:34;2.88;;;1.17;;
16660;SDS011;8444;52.012;5.048;2022-09-03T09:56:00;3.90;;;1.40;;
16660;SDS011;8444;52.012;5.048;2022-09-03T09:58:27;3.08;;;1.15;;
16660;SDS011;8444;52.012;5.048;2022-09-03T10:00:59;2.72;;;1.08;;
16660;SDS011;8444;52.012;5.048;2022-09-03T10:03:24;3.35;;;1.10;;
16660;SDS011;8444;52.012;5.048;2022-09-03T10:05:57;1.52;;;1.00;;
16660;SDS011;8444;52.012;5.048;2022-09-03T10:08:24;6.22;;;1.20;;
16660;SDS011;8444;52.012;5.048;2022-09-03T10:10:50;2.63;;;0.80;;
16660;SDS011;8444;52.012;5.048;2022-09-03T10:18:19;3.60;;;1.87;;
16660;SDS011;8444;52.012;5.048;2022-09-03T10:21:03;0.88;;;0.85;;
16660;SDS011;8444;52.012;5.048;2022-09-03T10:26:09;2.53;;;1.50;;
16660;SDS011;8444;52.012;5.048;2022-09-03T10:28:36;1.58;;;0.93;;
16660;SDS011;8444;52.012;5.048;2022-09-03T10:36:20;2.83;;;0.85;;
16660;SDS011;8444;52.012;5.048;2022-09-03T10:38:47;1.02;;;0.80;;
16660;SDS011;8444;52.012;5.048;2022-09-03T10:41:23;2.10;;;1.10;;
16660;SDS011;8444;52.012;5.048;2022-09-03T10:46:25;4.43;;;1.13;;
16660;SDS011;8444;52.012;5.048;2022-09-03T10:51:46;4.03;;;0.90;;
16660;SDS011;8444;52.012;5.048;2022-09-03T10:57:20;1.40;;;0.77;;
16660;SDS011;8444;52.012;5.048;2022-09-03T11:03:03;2.75;;;0.90;;
16660;SDS011;8444;52.012;5.048;2022-09-03T11:05:16;2.15;;;0.52;;
16660;SDS011;8444;52.012;5.048;2022-09-03T11:07:44;1.63;;;1.10;;
16660;SDS011;8444;52.012;5.048;2022-09-03T11:10:27;0.88;;;0.80;;
16660;SDS011;8444;52.012;5.048;2022-09-03T11:12:56;5.88;;;1.38;;
16660;SDS011;8444;52.012;5.048;2022-09-03T11:17:51;1.73;;;1.00;;
16660;SDS011;8444;52.012;5.048;2022-09-03T11:20:22;0.98;;;0.88;;
16660;SDS011;8444;52.012;5.048;2022-09-03T11:22:48;1.00;;;0.80;;
16660;SDS011;8444;52.012;5.048;2022-09-03T11:25:14;1.50;;;0.80;;
16660;SDS011;8444;52.012;5.048;2022-09-03T11:30:07;2.67;;;1.10;;
16660;SDS011;8444;52.012;5.048;2022-09-03T11:32:44;1.65;;;0.77;;
16660;SDS011;8444;52.012;5.048;2022-09-03T11:35:14;2.40;;;1.55;;
16660;SDS011;8444;52.012;5.048;2022-09-03T11:40:35;1.13;;;1.02;;
16660;SDS011;8444;52.012;5.048;2022-09-03T11:43:35;2.92;;;1.10;;
16660;SDS011;8444;52.012;5.048;2022-09-03T11:51:03;4.00;;;1.10;;
16660;SDS011;8444;52.012;5.048;2022-09-03T11:53:32;1.63;;;1.10;;
16660;SDS011;8444;52.012;5.048;2022-09-03T11:55:59;0.82;;;0.80;;
16660;SDS011;8444;52.012;5.048;2022-09-03T11:58:33;2.08;;;1.00;;
16660;SDS011;8444;52.012;5.048;2022-09-03T12:01:03;1.33;;;0.88;;
16660;SDS011;8444;52.012;5.048;2022-09-03T12:03:33;2.10;;;1.00;;
16660;SDS011;8444;52.012;5.048;2022-09-03T12:13:49;1.77;;;1.05;;
16660;SDS011;8444;52.012;5.048;2022-09-03T12:16:30;1.52;;;0.95;;
16660;SDS011;8444;52.012;5.048;2022-09-03T12:19:03;1.42;;;1.05;;
16660;SDS011;8444;52.012;5.048;2022-09-03T12:21:36;2.28;;;0.98;;
16660;SDS011;8444;52.012;5.048;2022-09-03T12:24:01;1.15;;;0.90;;
16660;SDS011;8444;52.012;5.048;2022-09-03T12:26:26;2.60;;;1.10;;
16660;SDS011;8444;52.012;5.048;2022-09-03T12:28:52;1.20;;;1.10;;
16660;SDS011;8444;52.012;5.048;2022-09-03T12:33:58;1.85;;;0.95;;
16660;SDS011;8444;52.012;5.048;2022-09-03T12:36:24;4.88;;;1.20;;
16660;SDS011;8444;52.012;5.048;2022-09-03T12:38:50;3.40;;;0.90;;
16660;SDS011;8444;52.012;5.048;2022-09-03T12:41:26;3.45;;;1.08;;
16660;SDS011;8444;52.012;5.048;2022-09-03T12:43:53;2.03;;;1.00;;
16660;SDS011;8444;52.012;5.048;2022-09-03T12:46:21;2.50;;;0.95;;
16660;SDS011;8444;52.012;5.048;2022-09-03T12:48:56;4.72;;;0.90;;
16660;SDS011;8444;52.012;5.048;2022-09-03T12:51:29;2.75;;;1.02;;
16660;SDS011;8444;52.012;5.048;2022-09-03T12:53:55;1.85;;;1.33;;
16660;SDS011;8444;52.012;5.048;2022-09-03T12:56:20;1.67;;;0.90;;
16660;SDS011;8444;52.012;5.048;2022-09-03T12:58:54;1.15;;;0.82;;
16660;SDS011;8444;52.012;5.048;2022-09-03T13:01:21;1.17;;;0.90;;
16660;SDS011;8444;52.012;5.048;2022-09-03T13:04:02;2.60;;;1.10;;
16660;SDS011;8444;52.012;5.048;2022-09-03T13:06:43;2.65;;;1.00;;
16660;SDS011;8444;52.012;5.048;2022-09-03T13:09:09;3.38;;;1.02;;
16660;SDS011;8444;52.012;5.048;2022-09-03T13:11:35;1.92;;;1.40;;
16660;SDS011;8444;52.012;5.048;2022-09-03T13:14:07;4.43;;;0.80;;
16660;SDS011;8444;52.012;5.048;2022-09-03T13:34:53;2.92;;;1.10;;
16660;SDS011;8444;52.012;5.048;2022-09-03T13:37:37;1.25;;;0.90;;
16660;SDS011;8444;52.012;5.048;2022-09-03T13:40:15;1.08;;;0.80;;
16660;SDS011;8444;52.012;5.048;2022-09-03T13:42:44;3.30;;;1.00;;
16660;SDS011;8444;52.012;5.048;2022-09-03T13:45:15;2.20;;;0.88;;
16660;SDS011;8444;52.012;5.048;2022-09-03T13:47:47;4.40;;;1.10;;
16660;SDS011;8444;52.012;5.048;2022-09-03T13:50:48;2.90;;;1.08;;
16660;SDS011;8444;52.012;5.048;2022-09-03T13:53:30;4.60;;;1.25;;
16660;SDS011;8444;52.012;5.048;2022-09-03T13:55:59;3.58;;;1.10;;
16660;SDS011;8444;52.012;5.048;2022-09-03T14:13:45;1.10;;;0.98;;
16660;SDS011;8444;52.012;5.048;2022-09-03T14:21:19;2.42;;;0.98;;
16660;SDS011;8444;52.012;5.048;2022-09-03T14:23:48;1.95;;;1.02;;
16660;SDS011;8444;52.012;5.048;2022-09-03T14:26:16;2.70;;;1.20;;
16660;SDS011;8444;52.012;5.048;2022-09-03T14:28:43;2.28;;;1.55;;
16660;SDS011;8444;52.012;5.048;2022-09-03T14:36:29;1.75;;;0.98;;
16660;SDS011;8444;52.012;5.048;2022-09-03T14:39:11;3.08;;;0.70;;
16660;SDS011;8444;52.012;5.048;2022-09-03T14:54:38;2.08;;;1.00;;
16660;SDS011;8444;52.012;5.048;2022-09-03T15:04:54;3.28;;;1.00;;
16660;SDS011;8444;52.012;5.048;2022-09-03T15:12:43;1.17;;;0.93;;
16660;SDS011;8444;52.012;5.048;2022-09-03T15:15:11;2.03;;;1.10;;
16660;SDS011;8444;52.012;5.048;2022-09-03T15:17:53;1.67;;;1.15;;
16660;SDS011;8444;52.012;5.048;2022-09-03T15:28:10;1.15;;;0.95;;
16660;SDS011;8444;52.012;5.048;2022-09-03T15:30:58;4.32;;;1.55;;
16660;SDS011;8444;52.012;5.048;2022-09-03T15:33:26;1.50;;;1.15;;
16660;SDS011;8444;52.012;5.048;2022-09-03T15:38:23;1.60;;;1.00;;
16660;SDS011;8444;52.012;5.048;2022-09-03T15:40:50;1.63;;;1.10;;
16660;SDS011;8444;52.012;5.048;2022-09-03T15:43:31;2.13;;;1.20;;
16660;SDS011;8444;52.012;5.048;2022-09-03T15:45:58;2.00;;;1.23;;
16660;SDS011;8444;52.012;5.048;2022-09-03T15:53:51;2.88;;;1.20;;
16660;SDS011;8444;52.012;5.048;2022-09-03T16:01:50;3.88;;;1.45;;
16660;SDS011;8444;52.012;5.048;2022-09-03T16:14:37;2.13;;;1.20;;
16660;SDS011;8444;52.012;5.048;2022-09-03T16:19:45;1.33;;;1.23;;
16660;SDS011;8444;52.012;5.048;2022-09-03T16:22:13;2.33;;;1.30;;
16660;SDS011;8444;52.012;5.048;2022-09-03T16:27:22;3.67;;;1.40;;
16660;SDS011;8444;52.012;5.048;2022-09-03T16:37:32;3.65;;;1.73;;
16660;SDS011;8444;52.012;5.048;2022-09-03T16:45:23;3.28;;;1.73;;
16660;SDS011;8444;52.012;5.048;2022-09-03T16:50:47;2.70;;;2.17;;
16660;SDS011;8444;52.012;5.048;2022-09-03T16:53:24;6.53;;;5.45;;
16660;SDS011;8444;52.012;5.048;2022-09-03T17:03:52;5.05;;;1.17;;
16660;SDS011;8444;52.012;5.048;2022-09-03T17:06:26;3.38;;;1.95;;
16660;SDS011;8444;52.012;5.048;2022-09-03T17:22:07;3.47;;;1.60;;
16660;SDS011;8444;52.012;5.048;2022-09-03T17:24:35;6.28;;;1.70;;
16660;SDS011;8444;52.012;5.048;2022-09-03T17:27:11;9.18;;;5.60;;
16660;SDS011;8444;52.012;5.048;2022-09-03T17:42:48;4.30;;;1.52;;
16660;SDS011;8444;52.012;5.048;2022-09-03T17:50:23;1.77;;;1.60;;
16660;SDS011;8444;52.012;5.048;2022-09-03T17:52:53;2.28;;;1.83;;
16660;SDS011;8444;52.012;5.048;2022-09-03T17:58:18;2.88;;;1.90;;
16660;SDS011;8444;52.012;5.048;2022-09-03T18:03:26;3.63;;;1.58;;
16660;SDS011;8444;52.012;5.048;2022-09-03T18:05:57;2.00;;;1.65;;
16660;SDS011;8444;52.012;5.048;2022-09-03T18:11:21;1.42;;;1.33;;
16660;SDS011;8444;52.012;5.048;2022-09-03T18:13:51;3.28;;;1.98;;
16660;SDS011;8444;52.012;5.048;2022-09-03T18:16:31;2.67;;;1.58;;
16660;SDS011;8444;52.012;5.048;2022-09-03T18:21:43;2.85;;;1.75;;
16660;SDS011;8444;52.012;5.048;2022-09-03T18:24:32;2.90;;;1.90;;
16660;SDS011;8444;52.012;5.048;2022-09-03T18:27:39;4.05;;;2.08;;
16660;SDS011;8444;52.012;5.048;2022-09-03T18:30:21;3.42;;;2.13;;
16660;SDS011;8444;52.012;5.048;2022-09-03T18:33:05;3.80;;;2.40;;
16660;SDS011;8444;52.012;5.048;2022-09-03T18:35:49;3.58;;;2.00;;
16660;SDS011;8444;52.012;5.048;2022-09-03T18:38:34;2.50;;;2.10;;
16660;SDS011;8444;52.012;5.048;2022-09-03T18:49:42;2.20;;;1.83;;
16660;SDS011;8444;52.012;5.048;2022-09-03T18:52:33;2.05;;;1.80;;
16660;SDS011;8444;52.012;5.048;2022-09-03T19:01:04;5.03;;;1.98;;
16660;SDS011;8444;52.012;5.048;2022-09-03T19:06:49;4.75;;;2.40;;
16660;SDS011;8444;52.012;5.048;2022-09-03T19:09:47;2.22;;;1.90;;
16660;SDS011;8444;52.012;5.048;2022-09-03T19:12:38;2.22;;;2.03;;
16660;SDS011;8444;52.012;5.048;2022-09-03T19:15:26;2.70;;;2.03;;
16660;SDS011;8444;52.012;5.048;2022-09-03T19:24:09;2.30;;;2.10;;
16660;SDS011;8444;52.012;5.048;2022-09-03T19:27:39;3.22;;;2.17;;
16660;SDS011;8444;52.012;5.048;2022-09-03T19:30:05;3.65;;;1.77;;
16660;SDS011;8444;52.012;5.048;2022-09-03T19:35:40;2.55;;;2.17;;
16660;SDS011;8444;52.012;5.048;2022-09-03T19:41:36;3.25;;;2.08;;
16660;SDS011;8444;52.012;5.048;2022-09-03T19:47:08;2.75;;;2.55;;
16660;SDS011;8444;52.012;5.048;2022-09-03T19:52:59;3.80;;;2.58;;
16660;SDS011;8444;52.012;5.048;2022-09-03T19:56:02;3.85;;;2.90;;
16660;SDS011;8444;52.012;5.048;2022-09-03T19:58:49;3.67;;;2.63;;
16660;SDS011;8444;52.012;5.048;2022-09-03T20:01:35;5.40;;;2.40;;
16660;SDS011;8444;52.012;5.048;2022-09-03T20:04:20;3.33;;;2.40;;
16660;SDS011;8444;52.012;5.048;2022-09-03T20:07:05;6.13;;;5.43;;
16660;SDS011;8444;52.012;5.048;2022-09-03T20:09:52;5.72;;;5.22;;
16660;SDS011;8444;52.012;5.048;2022-09-03T20:12:39;8.80;;;7.85;;
16660;SDS011;8444;52.012;5.048;2022-09-03T20:15:06;6.70;;;5.93;;
16660;SDS011;8444;52.012;5.048;2022-09-03T20:30:19;4.93;;;4.43;;
16660;SDS011;8444;52.012;5.048;2022-09-03T20:35:50;3.97;;;3.25;;
16660;SDS011;8444;52.012;5.048;2022-09-03T20:41:09;3.33;;;2.95;;
16660;SDS011;8444;52.012;5.048;2022-09-03T20:48:47;5.18;;;3.90;;
16660;SDS011;8444;52.012;5.048;2022-09-03T20:51:19;3.42;;;3.05;;
16660;SDS011;8444;52.012;5.048;2022-09-03T20:54:08;4.15;;;2.67;;
16660;SDS011;8444;52.012;5.048;2022-09-03T20:59:10;3.97;;;3.20;;
16660;SDS011;8444;52.012;5.048;2022-09-03T21:10:00;3.63;;;3.28;;
16660;SDS011;8444;52.012;5.048;2022-09-03T21:15:06;4.13;;;2.95;;